SEPLC ESGG-ESMX
Flight info
| Callsign | SEPLC |
|---|---|
| Flight time | 0h 33m |
| Altitude | 5000 |
| Route | LUKAX DCT UMIXA DCT NEMBA DCT IBTOX |
| Aircraft | BE58/L-SDFGRY/C |
Departure
| Time | 2026-05-04 17:12 |
|---|---|
| Airport | Göteborg Landvetter Airport (ESGG) |
Arrival
| Time | 2026-05-04 17:46 |
|---|---|
| Airport | Växjö Kronoberg Airport (ESMX) |
| Time | Latitude | Longitude | Altitude | Speed | Heading |
|---|---|---|---|---|---|
| 2026-05-04 16:56 | 57.66904 | 12.29184 | 510 ft | 0 kts | 250° |
| 2026-05-04 17:00 | 57.66905 | 12.29185 | 510 ft | 0 kts | 250° |
| 2026-05-04 17:05 | 57.66912 | 12.29222 | 510 ft | 2 kts | 250° |
| 2026-05-04 17:06 | 57.66920 | 12.29267 | 510 ft | 0 kts | 250° |
| 2026-05-04 17:06 | 57.66920 | 12.29265 | 510 ft | 0 kts | 250° |
| 2026-05-04 17:07 | 57.66915 | 12.29259 | 510 ft | 2 kts | 186° |
| 2026-05-04 17:08 | 57.66894 | 12.29272 | 510 ft | 4 kts | 180° |
| 2026-05-04 17:08 | 57.66787 | 12.29179 | 510 ft | 7 kts | 205° |
| 2026-05-04 17:08 | 57.66766 | 12.29141 | 510 ft | 3 kts | 268° |
| 2026-05-04 17:09 | 57.66779 | 12.29084 | 510 ft | 7 kts | 297° |
| 2026-05-04 17:09 | 57.66799 | 12.29009 | 510 ft | 6 kts | 293° |
| 2026-05-04 17:09 | 57.66820 | 12.28926 | 510 ft | 7 kts | 294° |
| 2026-05-04 17:10 | 57.66790 | 12.28777 | 507 ft | 5 kts | 229° |
| 2026-05-04 17:10 | 57.66652 | 12.28405 | 507 ft | 15 kts | 233° |
| 2026-05-04 17:11 | 57.66585 | 12.28266 | 506 ft | 13 kts | 221° |
| 2026-05-04 17:11 | 57.66530 | 12.28205 | 506 ft | 0 kts | 206° |
| 2026-05-04 17:11 | 57.65995 | 12.27722 | 532 ft | 114 kts | 206° |
| 2026-05-04 17:12 | 57.65174 | 12.26966 | 783 ft | 143 kts | 211° |
| 2026-05-04 17:12 | 57.63238 | 12.25049 | 1304 ft | 170 kts | 206° |
| 2026-05-04 17:13 | 57.59794 | 12.26549 | 1871 ft | 189 kts | 140° |
| 2026-05-04 17:14 | 57.57326 | 12.32422 | 2433 ft | 197 kts | 110° |
| 2026-05-04 17:14 | 57.57181 | 12.34960 | 2646 ft | 199 kts | 84° |
| 2026-05-04 17:14 | 57.58053 | 12.39783 | 3157 ft | 195 kts | 66° |
| 2026-05-04 17:15 | 57.58535 | 12.42204 | 3153 ft | 205 kts | 68° |
| 2026-05-04 17:15 | 57.59632 | 12.47153 | 3315 ft | 205 kts | 65° |
| 2026-05-04 17:16 | 57.60760 | 12.51937 | 3718 ft | 199 kts | 66° |
| 2026-05-04 17:16 | 57.62262 | 12.59101 | 4278 ft | 200 kts | 72° |
| 2026-05-04 17:17 | 57.62660 | 12.61584 | 4420 ft | 200 kts | 71° |
| 2026-05-04 17:17 | 57.63602 | 12.68996 | 5005 ft | 195 kts | 105° |
| 2026-05-04 17:18 | 57.62895 | 12.71050 | 5195 ft | 187 kts | 146° |
| 2026-05-04 17:18 | 57.61004 | 12.74345 | 5605 ft | 190 kts | 135° |
| 2026-05-04 17:19 | 57.59322 | 12.78091 | 6012 ft | 187 kts | 135° |
| 2026-05-04 17:19 | 57.57628 | 12.81789 | 6414 ft | 188 kts | 136° |
| 2026-05-04 17:20 | 57.55916 | 12.85524 | 6803 ft | 190 kts | 136° |
| 2026-05-04 17:20 | 57.54214 | 12.89237 | 7191 ft | 189 kts | 136° |
| 2026-05-04 17:20 | 57.53360 | 12.91095 | 7383 ft | 189 kts | 136° |
| 2026-05-04 17:21 | 57.51655 | 12.94800 | 7787 ft | 188 kts | 136° |
| 2026-05-04 17:21 | 57.49951 | 12.98502 | 8191 ft | 188 kts | 136° |
| 2026-05-04 17:22 | 57.49102 | 13.00343 | 8391 ft | 187 kts | 136° |
| 2026-05-04 17:22 | 57.48254 | 13.02178 | 8597 ft | 186 kts | 136° |
| 2026-05-04 17:23 | 57.46412 | 13.08544 | 9218 ft | 191 kts | 111° |
| 2026-05-04 17:23 | 57.45985 | 13.10897 | 9370 ft | 193 kts | 113° |
| 2026-05-04 17:23 | 57.45081 | 13.15603 | 9691 ft | 195 kts | 113° |
| 2026-05-04 17:24 | 57.44625 | 13.17980 | 9839 ft | 196 kts | 114° |
| 2026-05-04 17:24 | 57.43192 | 13.25433 | 9859 ft | 209 kts | 113° |
| 2026-05-04 17:25 | 57.42705 | 13.27966 | 9858 ft | 211 kts | 113° |
| 2026-05-04 17:25 | 57.41712 | 13.33128 | 9855 ft | 213 kts | 114° |
| 2026-05-04 17:26 | 57.40701 | 13.38331 | 9859 ft | 215 kts | 113° |
| 2026-05-04 17:26 | 57.39350 | 13.45298 | 9855 ft | 216 kts | 114° |
| 2026-05-04 17:27 | 57.38167 | 13.51369 | 9858 ft | 216 kts | 114° |
| 2026-05-04 17:27 | 57.37310 | 13.55755 | 9856 ft | 216 kts | 114° |
| 2026-05-04 17:28 | 57.36295 | 13.60946 | 9857 ft | 216 kts | 114° |
| 2026-05-04 17:29 | 57.34749 | 13.68814 | 9853 ft | 217 kts | 114° |
| 2026-05-04 17:29 | 57.33164 | 13.76844 | 9557 ft | 226 kts | 114° |
| 2026-05-04 17:30 | 57.31512 | 13.85177 | 9049 ft | 235 kts | 113° |
| 2026-05-04 17:31 | 57.30384 | 13.90858 | 8648 ft | 238 kts | 113° |
| 2026-05-04 17:31 | 57.28655 | 13.99526 | 8042 ft | 240 kts | 113° |
| 2026-05-04 17:32 | 57.27494 | 14.05324 | 7635 ft | 241 kts | 113° |
| 2026-05-04 17:33 | 57.25738 | 14.14063 | 7026 ft | 242 kts | 113° |
| 2026-05-04 17:33 | 57.25151 | 14.16975 | 6830 ft | 242 kts | 113° |
| 2026-05-04 17:34 | 57.23390 | 14.25686 | 6236 ft | 241 kts | 112° |
| 2026-05-04 17:34 | 57.22805 | 14.28579 | 6038 ft | 240 kts | 112° |
| 2026-05-04 17:35 | 57.21083 | 14.37056 | 5577 ft | 227 kts | 112° |
| 2026-05-04 17:35 | 57.19996 | 14.42386 | 5231 ft | 218 kts | 112° |
| 2026-05-04 17:35 | 57.19463 | 14.44987 | 5046 ft | 215 kts | 112° |
| 2026-05-04 17:36 | 57.18937 | 14.47553 | 4858 ft | 212 kts | 112° |
| 2026-05-04 17:36 | 57.18423 | 14.50058 | 4656 ft | 207 kts | 112° |
| 2026-05-04 17:36 | 57.17920 | 14.52513 | 4434 ft | 204 kts | 112° |
| 2026-05-04 17:36 | 57.17420 | 14.54947 | 4223 ft | 202 kts | 112° |
| 2026-05-04 17:37 | 57.16924 | 14.57356 | 4016 ft | 201 kts | 112° |
| 2026-05-04 17:37 | 57.16430 | 14.59763 | 3809 ft | 199 kts | 112° |
| 2026-05-04 17:37 | 57.15949 | 14.62095 | 3605 ft | 194 kts | 112° |
| 2026-05-04 17:37 | 57.15472 | 14.64409 | 3398 ft | 191 kts | 112° |
| 2026-05-04 17:38 | 57.15000 | 14.66690 | 3197 ft | 190 kts | 112° |
| 2026-05-04 17:38 | 57.14531 | 14.68958 | 2988 ft | 189 kts | 112° |
| 2026-05-04 17:38 | 57.14069 | 14.71191 | 2811 ft | 182 kts | 112° |
| 2026-05-04 17:38 | 57.13635 | 14.73286 | 2632 ft | 170 kts | 113° |
| 2026-05-04 17:39 | 57.12798 | 14.77300 | 2590 ft | 167 kts | 115° |
| 2026-05-04 17:39 | 57.12150 | 14.78991 | 2572 ft | 159 kts | 144° |
| 2026-05-04 17:39 | 57.11228 | 14.79947 | 2581 ft | 147 kts | 169° |
| 2026-05-04 17:40 | 57.10246 | 14.80143 | 2578 ft | 140 kts | 191° |
| 2026-05-04 17:40 | 57.09320 | 14.79785 | 2582 ft | 138 kts | 200° |
| 2026-05-04 17:40 | 57.08387 | 14.79391 | 2584 ft | 136 kts | 200° |
| 2026-05-04 17:40 | 57.07466 | 14.79003 | 2579 ft | 135 kts | 201° |
| 2026-05-04 17:41 | 57.06564 | 14.78617 | 2572 ft | 130 kts | 201° |
| 2026-05-04 17:41 | 57.05690 | 14.78238 | 2585 ft | 130 kts | 199° |
| 2026-05-04 17:41 | 57.04819 | 14.77886 | 2533 ft | 127 kts | 200° |
| 2026-05-04 17:41 | 57.03965 | 14.77503 | 2428 ft | 125 kts | 201° |
| 2026-05-04 17:42 | 57.03167 | 14.77177 | 2292 ft | 109 kts | 200° |
| 2026-05-04 17:42 | 57.02460 | 14.76878 | 2153 ft | 102 kts | 203° |
| 2026-05-04 17:42 | 57.01760 | 14.76600 | 2042 ft | 104 kts | 203° |
| 2026-05-04 17:42 | 57.01059 | 14.76313 | 1988 ft | 101 kts | 203° |
| 2026-05-04 17:43 | 57.00385 | 14.75990 | 1897 ft | 102 kts | 202° |
| 2026-05-04 17:43 | 56.99689 | 14.75675 | 1779 ft | 104 kts | 200° |
| 2026-05-04 17:43 | 56.98987 | 14.75378 | 1653 ft | 105 kts | 200° |
| 2026-05-04 17:43 | 56.98266 | 14.75083 | 1505 ft | 106 kts | 200° |
| 2026-05-04 17:44 | 56.97564 | 14.74790 | 1433 ft | 101 kts | 198° |
| 2026-05-04 17:44 | 56.96889 | 14.74487 | 1315 ft | 99 kts | 199° |
| 2026-05-04 17:44 | 56.96224 | 14.74192 | 1152 ft | 97 kts | 198° |
| 2026-05-04 17:44 | 56.95583 | 14.73899 | 1002 ft | 94 kts | 194° |
| 2026-05-04 17:45 | 56.94945 | 14.73658 | 870 ft | 93 kts | 194° |
| 2026-05-04 17:45 | 56.94335 | 14.73390 | 747 ft | 91 kts | 192° |
| 2026-05-04 17:45 | 56.93722 | 14.73139 | 615 ft | 88 kts | 192° |
| 2026-05-04 17:45 | 56.93205 | 14.72920 | 599 ft | 60 kts | 194° |
| 2026-05-04 17:46 | 56.92973 | 14.72819 | 602 ft | 20 kts | 192° |
| 2026-05-04 17:46 | 56.92845 | 14.72764 | 603 ft | 18 kts | 192° |
| 2026-05-04 17:46 | 56.92729 | 14.72715 | 600 ft | 17 kts | 193° |
| 2026-05-04 17:46 | 56.92634 | 14.72676 | 600 ft | 10 kts | 187° |
| 2026-05-04 17:47 | 56.92601 | 14.72680 | 601 ft | 0 kts | 160° |
| 2026-05-04 17:47 | 56.92577 | 14.72665 | 601 ft | 8 kts | 201° |
| 2026-05-04 17:47 | 56.92488 | 14.72615 | 601 ft | 16 kts | 194° |
| 2026-05-04 17:47 | 56.92368 | 14.72562 | 602 ft | 21 kts | 193° |
| 2026-05-04 17:48 | 56.92211 | 14.72498 | 602 ft | 21 kts | 194° |
| 2026-05-04 17:48 | 56.92114 | 14.72454 | 602 ft | 8 kts | 191° |
| 2026-05-04 17:48 | 56.92104 | 14.72450 | 602 ft | 0 kts | 192° |
| 2026-05-04 17:48 | 56.92096 | 14.72447 | 601 ft | 6 kts | 195° |
| 2026-05-04 17:49 | 56.92032 | 14.72424 | 598 ft | 8 kts | 173° |
| 2026-05-04 17:49 | 56.91992 | 14.72484 | 598 ft | 9 kts | 104° |
| 2026-05-04 17:49 | 56.91981 | 14.72612 | 602 ft | 8 kts | 86° |
| 2026-05-04 17:49 | 56.92009 | 14.72733 | 604 ft | 14 kts | 49° |
| 2026-05-04 17:50 | 56.92098 | 14.72806 | 600 ft | 17 kts | 12° |
| 2026-05-04 17:50 | 56.92202 | 14.72850 | 598 ft | 11 kts | 13° |
| 2026-05-04 17:50 | 56.92269 | 14.72879 | 600 ft | 11 kts | 14° |
| 2026-05-04 17:50 | 56.92332 | 14.72912 | 600 ft | 10 kts | 20° |
| 2026-05-04 17:51 | 56.92369 | 14.72968 | 600 ft | 6 kts | 85° |
| 2026-05-04 17:51 | 56.92363 | 14.73024 | 600 ft | 2 kts | 103° |
| 2026-05-04 17:51 | 56.92362 | 14.73032 | 600 ft | 0 kts | 104° |